NK77 weather

Niagara Falls Memorial Parking Ramp Heliport
Niagara Falls, New York, United States

Public forecast

Using degrees Fahrenheit for public forecast. Weather courtesy of forecast.io.

Closest aviation weather report (METAR) to Niagara Falls Memorial Parking Ramp Heliport

Closest report is Niagara Falls International Airport, 4.7 nm (8.7 km) E. Retrieved 2019/10/23 10:53 UTC (30 minutes ago):

KIAG 231053Z 25011KT 10SM CLR 08/04 A2984 RMK AO2 SLP110 T00780039

Closest aviation forecast (TAF) to Niagara Falls Memorial Parking Ramp Heliport

Closest forecast is Niagara Falls International Airport, 4.7 nm (8.7 km) E. Retrieved 2019/10/23 06:28 UTC (5 hours ago):

TAF KIAG 230525Z 2306/2406 24012G22KT P6SM BKN045 TEMPO 2308/2312 4SM -SHRA OVC025 FM231200 24011G17KT 4SM SHRA OVC025 FM231700 24022G35KT P6SM BKN035 FM232300 24013G20KT P6SM FEW250 FM240400 21010KT P6SM FEW090